createdAt,value
2018-05-29T00:02:10.799Z,83.98
2018-05-29T00:04:38.303Z,83.45
2018-05-29T00:07:05.784Z,84.74
2018-05-29T00:09:33.297Z,85.31
2018-05-29T00:12:18.818Z,85.05
2018-05-29T00:14:46.307Z,84.99
2018-05-29T00:17:13.795Z,84.94
2018-05-29T00:19:41.290Z,84.88
2018-05-29T00:22:08.766Z,84.96
2018-05-29T00:24:36.234Z,85.12
2018-05-29T00:27:03.743Z,85.03
2018-05-29T00:29:31.208Z,85.12
2018-05-29T00:31:58.689Z,85.08
2018-05-29T00:34:26.179Z,85.26
2018-05-29T00:36:53.675Z,85.50
2018-05-29T00:39:21.147Z,85.99
2018-05-29T00:41:48.645Z,85.65
2018-05-29T00:44:16.125Z,86.09
2018-05-29T00:46:43.614Z,85.98
2018-05-29T00:49:11.085Z,85.50
2018-05-29T00:51:38.582Z,85.17
2018-05-29T00:54:06.991Z,85.01
2018-05-29T00:56:34.529Z,85.00
2018-05-29T00:59:01.993Z,85.05
2018-05-29T01:01:29.489Z,85.66
2018-05-29T01:03:56.963Z,86.90
2018-05-29T01:06:24.426Z,88.22
2018-05-29T01:08:51.910Z,88.85
2018-05-29T01:11:19.378Z,88.49
2018-05-29T01:13:46.874Z,88.25
2018-05-29T01:16:14.337Z,88.90
2018-05-29T01:18:41.838Z,88.84
2018-05-29T01:21:09.319Z,88.80
2018-05-29T01:23:36.810Z,88.47
2018-05-29T01:26:04.287Z,88.39
2018-05-29T01:28:31.779Z,88.36
2018-05-29T01:30:59.251Z,88.45
2018-05-29T01:33:26.746Z,88.08
2018-05-29T01:35:54.229Z,88.29
2018-05-29T01:38:21.761Z,88.37
2018-05-29T01:40:49.254Z,89.30
2018-05-29T01:43:16.730Z,89.82
2018-05-29T01:45:44.219Z,88.86
2018-05-29T01:48:11.700Z,89.15
2018-05-29T01:50:39.232Z,88.99
2018-05-29T01:53:06.710Z,89.50
2018-05-29T01:55:34.258Z,89.55
2018-05-29T01:58:01.732Z,89.68
2018-05-29T02:00:29.218Z,89.80
2018-05-29T02:02:56.702Z,89.91
2018-05-29T02:05:24.198Z,90.09
2018-05-29T02:07:51.681Z,91.09
2018-05-29T02:10:19.172Z,91.18
2018-05-29T02:12:46.654Z,90.81
2018-05-29T02:15:14.154Z,90.43
2018-05-29T02:17:41.622Z,89.87
2018-05-29T02:20:09.117Z,89.16
2018-05-29T02:22:36.604Z,90.18
2018-05-29T02:25:04.295Z,90.86
2018-05-29T02:27:31.785Z,91.15
2018-05-29T02:29:59.271Z,91.29
2018-05-29T02:32:26.771Z,91.45
2018-05-29T02:34:54.242Z,92.36
2018-05-29T02:37:21.734Z,91.49
2018-05-29T02:39:49.223Z,91.73
2018-05-29T02:42:17.473Z,91.12
2018-05-29T02:44:44.956Z,91.06
2018-05-29T02:47:12.458Z,90.35
2018-05-29T02:49:39.936Z,89.94
2018-05-29T02:52:07.424Z,89.25
2018-05-29T02:54:34.916Z,88.83
2018-05-29T02:57:02.431Z,88.99
2018-05-29T02:59:29.898Z,89.56
2018-05-29T03:01:57.377Z,90.12
2018-05-29T03:04:24.889Z,90.90
2018-05-29T03:06:52.373Z,90.13
2018-05-29T03:09:19.862Z,90.09
2018-05-29T03:11:47.342Z,90.44
2018-05-29T03:14:14.853Z,90.95
2018-05-29T03:16:42.322Z,91.76
2018-05-29T03:19:09.839Z,91.80
2018-05-29T03:21:37.313Z,91.32
2018-05-29T03:24:04.821Z,91.58
2018-05-29T03:26:32.359Z,91.53
2018-05-29T03:28:59.817Z,91.96
2018-05-29T03:31:27.297Z,91.79
2018-05-29T03:33:54.801Z,91.85
2018-05-29T03:36:22.718Z,92.04
2018-05-29T03:38:50.190Z,92.20
2018-05-29T03:41:17.685Z,93.79
2018-05-29T03:43:45.167Z,94.46
2018-05-29T03:46:12.659Z,94.55
2018-05-29T03:48:40.137Z,94.72
2018-05-29T03:51:07.643Z,94.42
2018-05-29T03:53:35.130Z,94.29
2018-05-29T03:56:02.623Z,94.31
2018-05-29T03:58:30.102Z,93.99
2018-05-29T04:00:58.457Z,93.69
2018-05-29T04:03:25.934Z,93.35
2018-05-29T04:05:53.728Z,93.42
2018-05-29T04:08:21.213Z,93.19
2018-05-29T04:10:48.698Z,92.99
2018-05-29T04:13:16.204Z,92.89
2018-05-29T04:15:43.679Z,92.49
2018-05-29T04:18:11.183Z,91.86
2018-05-29T04:20:38.655Z,91.44
2018-05-29T04:23:06.178Z,91.06
2018-05-29T04:25:33.674Z,90.35
2018-05-29T04:28:01.174Z,90.74
2018-05-29T04:30:28.646Z,90.85
2018-05-29T04:32:56.151Z,90.16
2018-05-29T04:35:23.629Z,89.86
2018-05-29T04:37:51.121Z,89.58
2018-05-29T04:40:18.596Z,90.36
2018-05-29T04:42:46.106Z,90.26
2018-05-29T04:45:13.587Z,89.77
2018-05-29T04:47:41.086Z,89.38
2018-05-29T04:50:08.571Z,88.87
2018-05-29T04:52:36.038Z,88.12
2018-05-29T04:55:03.528Z,88.72
2018-05-29T04:57:31.979Z,89.46
2018-05-29T04:59:59.475Z,88.14
2018-05-29T05:02:27.055Z,87.94
2018-05-29T05:04:54.505Z,87.65
2018-05-29T05:07:21.998Z,86.29
2018-05-29T05:09:49.494Z,85.33
2018-05-29T05:12:16.966Z,84.14
2018-05-29T05:14:44.476Z,83.90
2018-05-29T05:17:11.950Z,85.29
2018-05-29T05:19:39.446Z,84.74
2018-05-29T05:22:07.191Z,87.58
2018-05-29T05:24:35.095Z,88.41
2018-05-29T05:27:02.970Z,89.13
2018-05-29T05:29:31.338Z,88.59
2018-05-29T05:31:59.087Z,86.97
2018-05-29T05:34:26.601Z,84.82
2018-05-29T05:36:54.936Z,84.46
2018-05-29T05:39:23.595Z,83.17
2018-05-29T05:41:51.571Z,81.57
2018-05-29T05:44:19.114Z,80.73
2018-05-29T05:46:46.970Z,81.08
2018-05-29T05:49:14.689Z,80.07
2018-05-29T05:51:42.610Z,79.35
2018-05-29T05:54:10.138Z,78.72
2018-05-29T05:56:37.666Z,77.98
2018-05-29T05:59:05.166Z,78.29
2018-05-29T06:01:33.577Z,77.57
2018-05-29T06:04:01.335Z,77.09
2018-05-29T06:06:28.879Z,77.69
2018-05-29T06:08:56.395Z,79.68
2018-05-29T06:11:24.003Z,77.98
2018-05-29T06:13:51.487Z,78.05
2018-05-29T06:16:19.243Z,78.31
2018-05-29T06:18:47.307Z,79.61
2018-05-29T06:21:16.079Z,79.50
2018-05-29T06:23:44.311Z,78.75
2018-05-29T06:26:12.046Z,78.66
2018-05-29T06:28:39.807Z,77.40
2018-05-29T06:31:08.137Z,79.39
2018-05-29T06:33:35.686Z,78.57
2018-05-29T06:36:03.193Z,78.67
2018-05-29T06:38:31.112Z,77.26
2018-05-29T06:40:58.898Z,77.00
2018-05-29T06:43:26.429Z,77.15
2018-05-29T06:57:24.974Z,75.44
2018-05-29T06:59:53.849Z,74.64
2018-05-29T07:02:21.588Z,74.62
2018-05-29T07:04:49.820Z,74.06
2018-05-29T07:07:17.375Z,71.99
2018-05-29T07:09:45.130Z,72.24
2018-05-29T07:12:14.019Z,73.58
2018-05-29T07:14:42.429Z,70.79
2018-05-29T07:17:10.601Z,71.24
2018-05-29T07:19:38.342Z,68.38
2018-05-29T07:22:06.258Z,70.60
2018-05-29T07:24:33.895Z,69.15
2018-05-29T07:27:01.755Z,69.92
2018-05-29T07:29:29.307Z,68.04
2018-05-29T07:31:56.843Z,67.49
2018-05-29T07:34:24.320Z,69.21
2018-05-29T07:36:51.927Z,70.58
2018-05-29T07:39:19.492Z,70.07
2018-05-29T07:41:47.009Z,68.40
2018-05-29T07:44:15.677Z,66.75
2018-05-29T07:46:43.682Z,67.04
2018-05-29T07:49:11.442Z,67.34
2018-05-29T07:51:38.987Z,65.70
2018-05-29T07:54:06.710Z,63.62
2018-05-29T07:56:35.238Z,62.15
2018-05-29T07:59:02.732Z,62.27
2018-05-29T08:01:30.303Z,62.15
2018-05-29T08:03:59.052Z,62.76
2018-05-29T08:06:27.063Z,62.06
2018-05-29T08:08:55.298Z,63.41
2018-05-29T08:11:22.860Z,64.63
2018-05-29T08:13:50.683Z,64.45
2018-05-29T08:16:18.461Z,62.41
2018-05-29T08:18:46.473Z,63.45
2018-05-29T08:21:14.765Z,64.83
2018-05-29T08:23:43.125Z,63.95
2018-05-29T08:26:11.050Z,63.02
2018-05-29T08:28:38.910Z,62.88
2018-05-29T08:31:07.492Z,59.21
2018-05-29T08:33:35.035Z,64.31
2018-05-29T08:36:02.618Z,63.64
2018-05-29T08:38:31.499Z,63.67
2018-05-29T08:40:59.026Z,61.03
2018-05-29T08:43:32.879Z,60.10
2018-05-29T08:46:01.514Z,58.88
2018-05-29T08:48:29.307Z,59.16
2018-05-29T08:50:57.269Z,58.53
2018-05-29T08:53:25.333Z,59.83
2018-05-29T08:55:53.072Z,57.94
2018-05-29T08:58:20.872Z,61.08
2018-05-29T09:00:49.488Z,60.04
2018-05-29T09:03:17.259Z,60.25
2018-05-29T09:05:45.641Z,59.85
2018-05-29T09:08:13.878Z,59.00
2018-05-29T09:10:41.384Z,57.66
2018-05-29T09:13:08.971Z,57.52
2018-05-29T09:15:37.188Z,58.13
2018-05-29T09:18:05.193Z,57.72
2018-05-29T09:20:33.899Z,57.61
2018-05-29T09:23:01.647Z,58.03
2018-05-29T09:25:29.362Z,56.61
2018-05-29T09:27:57.718Z,55.29
2018-05-29T09:30:25.435Z,57.68
2018-05-29T09:32:53.373Z,54.02
2018-05-29T09:35:21.374Z,56.91
2018-05-29T09:37:49.368Z,55.65
2018-05-29T09:40:17.141Z,56.81
2018-05-29T09:42:44.686Z,54.55
2018-05-29T09:45:15.630Z,53.88
2018-05-29T09:47:43.403Z,53.84
2018-05-29T09:50:10.963Z,55.17
2018-05-29T09:52:38.685Z,56.38
2018-05-29T09:55:06.685Z,57.47
2018-05-29T09:57:34.532Z,57.83
2018-05-29T10:00:06.007Z,57.60
2018-05-29T10:02:33.863Z,57.69
2018-05-29T10:05:02.403Z,56.24
2018-05-29T10:07:30.160Z,56.76
2018-05-29T10:09:59.229Z,55.57
2018-05-29T10:12:27.159Z,56.74
2018-05-29T10:14:55.828Z,56.34
2018-05-29T10:17:23.567Z,55.29
2018-05-29T10:19:52.124Z,55.57
2018-05-29T10:22:20.675Z,53.51
2018-05-29T10:24:48.484Z,53.86
2018-05-29T10:27:16.513Z,53.34
2018-05-29T10:29:44.301Z,52.84
2018-05-29T10:32:12.714Z,52.43
2018-05-29T10:34:42.093Z,50.69
2018-05-29T10:37:09.678Z,50.18
2018-05-29T10:39:37.550Z,52.15
2018-05-29T10:42:05.258Z,52.39
2018-05-29T10:44:33.317Z,53.87
2018-05-29T10:47:01.722Z,54.02
2018-05-29T10:49:29.330Z,52.47
2018-05-29T10:51:57.083Z,50.21
2018-05-29T10:54:24.733Z,50.40
2018-05-29T10:56:52.333Z,48.07
2018-05-29T10:59:20.334Z,48.15
2018-05-29T11:01:47.802Z,45.30
2018-05-29T11:04:15.567Z,46.78
2018-05-29T11:06:43.309Z,47.78
2018-05-29T11:09:11.444Z,45.19
2018-05-29T11:11:39.327Z,46.33
2018-05-29T11:14:07.198Z,45.66
2018-05-29T11:16:34.946Z,46.27
2018-05-29T11:19:03.512Z,47.13
2018-05-29T11:21:32.240Z,44.19
2018-05-29T11:23:59.789Z,47.14
2018-05-29T11:26:27.675Z,44.31
2018-05-29T11:28:55.466Z,45.84
2018-05-29T11:31:23.311Z,45.94
2018-05-29T11:33:51.561Z,48.69
2018-05-29T11:36:19.500Z,48.53
2018-05-29T11:38:47.054Z,45.92
2018-05-29T11:41:14.579Z,49.93
2018-05-29T11:43:42.454Z,49.66
2018-05-29T11:46:10.018Z,49.86
2018-05-29T11:48:38.408Z,47.11
2018-05-29T11:51:05.870Z,47.15
2018-05-29T11:53:33.426Z,46.20
2018-05-29T11:56:01.360Z,44.63
2018-05-29T11:58:28.966Z,43.35
2018-05-29T12:00:56.546Z,41.45
2018-05-29T12:03:24.310Z,43.72
2018-05-29T12:05:51.912Z,46.79
2018-05-29T12:08:19.438Z,48.13
2018-05-29T12:10:47.034Z,47.65
2018-05-29T12:13:14.815Z,48.52
2018-05-29T12:15:42.622Z,46.39
2018-05-29T12:18:10.467Z,45.85
2018-05-29T12:20:38.285Z,41.21
2018-05-29T12:23:06.662Z,41.77
2018-05-29T12:25:34.896Z,40.49
2018-05-29T12:28:05.483Z,40.66
2018-05-29T12:30:34.213Z,41.19
2018-05-29T12:33:02.891Z,38.46
2018-05-29T12:35:30.792Z,40.17
2018-05-29T12:37:59.515Z,43.00
2018-05-29T12:40:27.223Z,43.04
2018-05-29T12:42:55.502Z,43.51
2018-05-29T12:45:24.310Z,44.03
2018-05-29T12:47:53.553Z,44.89
2018-05-29T12:50:21.446Z,42.29
2018-05-29T12:52:50.177Z,42.36
2018-05-29T12:55:20.002Z,46.26
2018-05-29T12:57:47.959Z,45.47
2018-05-29T13:00:16.123Z,43.37
2018-05-29T13:02:45.759Z,45.72
2018-05-29T13:05:14.364Z,44.84
2018-05-29T13:10:52.291Z,46.42
2018-05-29T13:13:19.874Z,48.61
2018-05-29T13:15:47.371Z,48.12
2018-05-29T13:18:15.039Z,51.51
2018-05-29T13:20:42.681Z,49.31
2018-05-29T13:23:10.204Z,49.97
2018-05-29T13:25:38.013Z,50.95
2018-05-29T13:28:05.645Z,52.52
2018-05-29T13:30:33.331Z,54.00
2018-05-29T13:33:00.899Z,57.10
2018-05-29T13:35:28.691Z,58.84
2018-05-29T13:37:56.216Z,60.43
2018-05-29T13:40:23.810Z,63.49
2018-05-29T13:42:51.393Z,68.16
2018-05-29T13:45:19.421Z,71.66
2018-05-29T13:47:47.045Z,74.22
2018-05-29T13:50:22.996Z,78.11
2018-05-29T13:52:50.591Z,82.60
2018-05-29T13:55:18.129Z,86.24
2018-05-29T13:57:45.883Z,84.15
2018-05-29T14:00:13.631Z,79.72
2018-05-29T14:02:45.016Z,85.14
2018-05-29T14:05:12.582Z,87.06
2018-05-29T14:07:40.251Z,89.02
2018-05-29T14:10:12.815Z,91.48
2018-05-29T14:12:40.502Z,91.50
2018-05-29T14:15:08.228Z,91.24
2018-05-29T14:17:36.265Z,91.60
2018-05-29T14:20:03.866Z,92.41
2018-05-29T14:22:31.640Z,93.53
2018-05-29T14:24:59.964Z,93.73
2018-05-29T14:27:27.608Z,92.86
2018-05-29T14:29:55.455Z,93.06
2018-05-29T14:32:33.244Z,93.97
2018-05-29T14:35:00.943Z,93.09
2018-05-29T14:40:20.007Z,88.49
2018-05-29T14:42:48.537Z,89.67
2018-05-29T14:45:16.929Z,90.62
2018-05-29T14:47:44.594Z,91.09
2018-05-29T14:50:12.102Z,90.94
2018-05-29T14:52:39.690Z,88.50
2018-05-29T14:55:07.431Z,88.80
2018-05-29T14:57:34.946Z,87.51
2018-05-29T15:00:02.424Z,90.35
2018-05-29T15:02:29.930Z,88.75
2018-05-29T15:04:57.418Z,86.27
2018-05-29T15:07:24.916Z,85.25
2018-05-29T15:09:52.398Z,86.20
2018-05-29T15:12:19.866Z,85.28
2018-05-29T15:14:47.350Z,84.20
2018-05-29T15:17:14.826Z,81.92
2018-05-29T15:19:42.319Z,81.73
2018-05-29T15:22:09.804Z,82.03
2018-05-29T15:24:37.303Z,79.31
2018-05-29T15:27:04.771Z,77.50
2018-05-29T15:29:32.289Z,76.58
2018-05-29T15:31:59.754Z,78.51
2018-05-29T15:34:27.249Z,79.75
2018-05-29T15:36:54.733Z,81.06
2018-05-29T15:39:22.252Z,81.85
2018-05-29T15:41:49.739Z,82.53
2018-05-29T15:44:17.250Z,83.99
2018-05-29T15:46:45.244Z,83.61
2018-05-29T15:49:12.857Z,85.79
2018-05-29T15:51:40.403Z,87.11
2018-05-29T15:54:08.330Z,86.72
2018-05-29T15:56:35.809Z,86.48
2018-05-29T15:59:03.683Z,86.31
2018-05-29T16:01:31.147Z,85.78
2018-05-29T16:03:58.638Z,86.24
2018-05-29T16:06:26.117Z,86.86
2018-05-29T16:08:53.611Z,87.02
2018-05-29T16:11:22.999Z,87.65
2018-05-29T16:13:50.498Z,89.50
2018-05-29T16:16:17.975Z,91.22
2018-05-29T16:18:45.466Z,91.49
2018-05-29T16:21:12.938Z,91.85
2018-05-29T16:23:40.430Z,91.71
2018-05-29T16:26:07.934Z,93.23
2018-05-29T16:28:35.438Z,93.01
2018-05-29T16:31:02.920Z,93.45
2018-05-29T16:33:30.395Z,93.69
2018-05-29T16:35:57.935Z,93.79
2018-05-29T16:38:25.430Z,93.66
2018-05-29T16:40:52.950Z,93.46
2018-05-29T16:43:20.459Z,93.56
2018-05-29T16:45:48.021Z,93.01
2018-05-29T16:48:15.559Z,92.74
2018-05-29T16:50:43.136Z,92.16
2018-05-29T16:53:10.668Z,92.18
2018-05-29T16:55:38.294Z,91.95
2018-05-29T16:58:05.815Z,91.78
2018-05-29T17:00:33.323Z,91.73
2018-05-29T17:03:00.892Z,91.32
2018-05-29T17:05:28.479Z,90.80
2018-05-29T17:07:56.034Z,90.04
2018-05-29T17:10:23.865Z,87.51
2018-05-29T17:12:51.512Z,84.39
2018-05-29T17:15:19.128Z,81.75
2018-05-29T17:17:46.657Z,79.86
2018-05-29T17:20:14.312Z,80.30
2018-05-29T17:22:41.861Z,80.32
2018-05-29T17:25:09.427Z,82.28
2018-05-29T17:27:37.327Z,83.54
2018-05-29T17:30:05.572Z,83.96
2018-05-29T17:32:33.748Z,83.29
2018-05-29T17:35:01.372Z,83.91
2018-05-29T17:37:28.897Z,85.93
2018-05-29T17:39:56.417Z,84.74
2018-05-29T17:42:23.905Z,85.49
2018-05-29T17:44:51.427Z,86.06
2018-05-29T17:47:18.935Z,86.50
2018-05-29T17:49:46.454Z,87.20
2018-05-29T17:52:13.927Z,86.14
2018-05-29T17:54:41.414Z,84.53
2018-05-29T17:57:08.915Z,85.33
2018-05-29T17:59:36.386Z,84.31
2018-05-29T18:02:03.887Z,84.72
2018-05-29T18:04:31.358Z,85.05
2018-05-29T18:06:59.021Z,87.07
2018-05-29T18:09:26.574Z,84.42
2018-05-29T18:11:54.187Z,79.49
2018-05-29T18:14:21.767Z,79.94
2018-05-29T18:16:49.436Z,79.09
2018-05-29T18:19:17.115Z,79.46
2018-05-29T18:21:44.772Z,86.39
2018-05-29T18:24:12.254Z,86.79
2018-05-29T18:26:39.755Z,88.37
2018-05-29T18:29:07.269Z,89.09
2018-05-29T18:31:34.759Z,90.49
2018-05-29T18:34:02.235Z,92.04
2018-05-29T18:36:29.734Z,92.50
2018-05-29T18:38:57.972Z,92.84
2018-05-29T18:41:25.611Z,93.38
2018-05-29T18:43:53.235Z,93.20
2018-05-29T18:46:21.434Z,93.37
2018-05-29T18:48:48.964Z,93.96
2018-05-29T18:51:16.497Z,94.85
2018-05-29T18:53:43.965Z,95.10
2018-05-29T18:56:11.457Z,95.45
2018-05-29T18:58:38.929Z,95.88
2018-05-29T19:01:06.425Z,96.40
2018-05-29T19:03:33.989Z,96.71
2018-05-29T19:06:01.464Z,96.98
2018-05-29T19:08:29.676Z,97.22
2018-05-29T19:10:57.182Z,97.48
2018-05-29T19:13:24.721Z,97.68
2018-05-29T19:15:52.280Z,97.73
2018-05-29T19:18:19.838Z,97.82
2018-05-29T19:20:47.417Z,97.81
2018-05-29T19:23:14.960Z,97.84
2018-05-29T19:25:42.458Z,97.96
2018-05-29T19:28:09.987Z,98.03
2018-05-29T19:30:37.527Z,98.16
2018-05-29T19:33:05.098Z,98.28
2018-05-29T19:35:32.631Z,98.28
2018-05-29T19:38:00.169Z,98.35
2018-05-29T19:40:27.720Z,98.40
2018-05-29T19:42:55.287Z,98.44
2018-05-29T19:45:22.914Z,98.44
2018-05-29T19:47:50.475Z,98.54
2018-05-29T19:50:17.986Z,98.68
2018-05-29T19:52:45.569Z,98.75
2018-05-29T19:55:13.134Z,98.90
2018-05-29T19:57:40.706Z,99.07
2018-05-29T20:00:08.245Z,99.26
2018-05-29T20:02:35.810Z,99.42
2018-05-29T20:05:03.363Z,99.58
2018-05-29T20:07:30.911Z,99.70
2018-05-29T20:09:58.504Z,99.77
2018-05-29T20:12:26.054Z,99.83
2018-05-29T20:14:53.560Z,99.80
2018-05-29T20:17:31.029Z,99.80
2018-05-29T20:19:58.515Z,99.69
2018-05-29T20:22:26.007Z,99.63
2018-05-29T20:24:53.573Z,99.64
2018-05-29T20:27:21.065Z,99.67
2018-05-29T20:29:48.550Z,99.68
2018-05-29T20:32:16.062Z,99.70
2018-05-29T20:34:43.556Z,99.66
2018-05-29T20:37:11.042Z,99.67
2018-05-29T20:39:38.531Z,99.66
2018-05-29T20:42:06.002Z,99.75
2018-05-29T20:44:33.501Z,99.78
2018-05-29T20:47:00.982Z,99.79
2018-05-29T20:49:28.478Z,100.00
2018-05-29T20:51:55.949Z,100.00
2018-05-29T20:54:23.448Z,100.00
2018-05-29T20:56:50.922Z,100.00
2018-05-29T20:59:18.417Z,100.00
2018-05-29T21:01:45.909Z,100.00
2018-05-29T21:04:13.422Z,100.00
2018-05-29T21:06:40.894Z,100.00
2018-05-29T21:09:08.360Z,100.00
2018-05-29T21:11:35.862Z,100.00
2018-05-29T21:14:03.366Z,100.00
2018-05-29T21:16:30.859Z,100.00
2018-05-29T21:18:58.330Z,100.00
2018-05-29T21:21:25.825Z,100.00
2018-05-29T21:23:53.321Z,100.00
2018-05-29T21:26:20.809Z,100.00
2018-05-29T21:28:48.297Z,100.00
2018-05-29T21:31:15.802Z,100.00
2018-05-29T21:33:43.282Z,100.00
2018-05-29T21:36:10.793Z,100.00
2018-05-29T21:38:38.270Z,100.00
2018-05-29T21:41:05.761Z,100.00
2018-05-29T21:43:33.238Z,100.00
2018-05-29T21:46:00.713Z,100.00
2018-05-29T21:48:28.203Z,100.00
2018-05-29T21:50:55.683Z,100.00
2018-05-29T21:53:23.174Z,100.00
2018-05-29T21:55:50.639Z,100.00
2018-05-29T21:58:18.139Z,100.00
2018-05-29T22:00:45.610Z,100.00
2018-05-29T22:03:13.101Z,100.00
2018-05-29T22:05:40.575Z,100.00
2018-05-29T22:08:08.079Z,100.00
2018-05-29T22:10:35.563Z,100.00
2018-05-29T22:13:03.052Z,100.00
2018-05-29T22:15:30.525Z,100.00
2018-05-29T22:17:57.998Z,100.00
2018-05-29T22:20:25.510Z,100.00
2018-05-29T22:22:52.986Z,100.00
2018-05-29T22:25:20.473Z,100.00
2018-05-29T22:27:47.947Z,100.00
2018-05-29T22:30:15.460Z,100.00
2018-05-29T22:32:42.934Z,100.00
2018-05-29T22:35:10.431Z,100.00
2018-05-29T22:37:37.921Z,100.00
2018-05-29T22:40:05.418Z,100.00
2018-05-29T22:42:32.886Z,100.00
2018-05-29T22:45:00.378Z,100.00
2018-05-29T22:47:27.871Z,100.00
2018-05-29T22:49:55.378Z,100.00
2018-05-29T22:52:22.855Z,100.00
2018-05-29T22:54:50.330Z,100.00
2018-05-29T22:57:17.857Z,100.00
2018-05-29T22:59:45.338Z,100.00
2018-05-29T23:02:12.833Z,100.00
2018-05-29T23:04:40.319Z,100.00
2018-05-29T23:07:07.819Z,100.00
2018-05-29T23:09:35.295Z,100.00
2018-05-29T23:12:02.786Z,100.00
2018-05-29T23:14:30.262Z,100.00
2018-05-29T23:16:57.749Z,100.00
2018-05-29T23:19:25.262Z,100.00
2018-05-29T23:21:52.746Z,100.00
2018-05-29T23:24:20.218Z,100.00
2018-05-29T23:26:47.685Z,100.00
2018-05-29T23:29:15.187Z,100.00
2018-05-29T23:31:42.666Z,100.00
2018-05-29T23:34:10.168Z,100.00
2018-05-29T23:36:37.646Z,100.00
2018-05-29T23:39:06.020Z,100.00
2018-05-29T23:41:33.514Z,100.00
2018-05-29T23:44:01.010Z,100.00
2018-05-29T23:46:28.481Z,100.00
2018-05-29T23:48:55.971Z,100.00
2018-05-29T23:51:23.468Z,100.00
2018-05-29T23:53:50.958Z,100.00
2018-05-29T23:56:18.429Z,100.00
2018-05-29T23:58:45.941Z,100.00
